createdAt,value
2023-05-01T00:00:12.433Z,0.00
2023-05-01T00:01:12.410Z,0.00
2023-05-01T00:02:12.461Z,0.00
2023-05-01T00:03:12.458Z,0.00
2023-05-01T00:04:12.541Z,0.00
2023-05-01T00:05:12.451Z,0.00
2023-05-01T00:06:12.366Z,0.00
2023-05-01T00:07:12.345Z,0.00
2023-05-01T00:08:12.322Z,0.00
2023-05-01T00:09:12.334Z,0.00
2023-05-01T00:10:14.034Z,0.00
2023-05-01T00:11:12.303Z,0.00
2023-05-01T00:12:12.317Z,0.00
2023-05-01T00:13:15.665Z,0.00
2023-05-01T00:14:12.271Z,0.00
2023-05-01T00:15:12.312Z,0.00
2023-05-01T00:16:12.290Z,0.00
2023-05-01T00:17:13.257Z,0.00
2023-05-01T00:18:12.353Z,0.00
2023-05-01T00:19:12.593Z,0.00
2023-05-01T00:20:12.716Z,0.00
2023-05-01T00:21:12.222Z,0.00
2023-05-01T00:22:12.235Z,0.00
2023-05-01T00:23:12.742Z,0.00
2023-05-01T00:24:12.211Z,0.00
2023-05-01T00:25:12.171Z,0.00
2023-05-01T00:26:15.785Z,0.00
2023-05-01T00:27:13.842Z,0.00
2023-05-01T00:28:13.753Z,0.00
2023-05-01T00:29:12.153Z,0.00
2023-05-01T00:30:12.126Z,0.00
2023-05-01T00:31:12.223Z,0.00
2023-05-01T00:32:12.163Z,0.00
2023-05-01T00:33:12.791Z,0.00
2023-05-01T00:34:12.118Z,0.00
2023-05-01T00:35:12.069Z,0.00
2023-05-01T00:36:12.150Z,0.00
2023-05-01T00:37:12.044Z,0.00
2023-05-01T00:38:12.063Z,0.00
2023-05-01T00:39:12.755Z,0.00
2023-05-01T00:40:14.059Z,0.00
2023-05-01T00:41:12.033Z,0.00
2023-05-01T00:42:12.001Z,0.00
2023-05-01T00:43:12.035Z,0.00
2023-05-01T00:44:12.798Z,0.00
2023-05-01T00:45:11.976Z,0.00
2023-05-01T00:46:12.009Z,0.00
2023-05-01T00:47:11.964Z,0.00
2023-05-01T00:48:12.039Z,0.00
2023-05-01T00:49:11.951Z,0.00
2023-05-01T00:50:11.988Z,0.00
2023-05-01T00:51:14.172Z,0.00
2023-05-01T00:52:11.923Z,0.00
2023-05-01T00:53:11.959Z,0.00
2023-05-01T00:54:11.919Z,0.00
2023-05-01T00:55:11.888Z,0.00
2023-05-01T00:56:11.867Z,0.00
2023-05-01T00:57:11.889Z,0.00
2023-05-01T00:58:11.879Z,0.00
2023-05-01T00:59:11.854Z,0.00
2023-05-01T01:00:11.815Z,0.00
2023-05-01T01:01:11.836Z,0.00
2023-05-01T01:02:11.880Z,0.00
2023-05-01T01:03:11.791Z,0.00
2023-05-01T01:04:12.765Z,0.00
2023-05-01T01:05:11.759Z,0.00
2023-05-01T01:06:11.793Z,0.00
2023-05-01T01:07:13.540Z,0.00
2023-05-01T01:08:11.767Z,0.00
2023-05-01T01:09:11.735Z,0.00
2023-05-01T01:10:11.758Z,0.00
2023-05-01T01:11:11.718Z,0.00
2023-05-01T01:12:13.222Z,0.00
2023-05-01T01:13:12.419Z,0.00
2023-05-01T01:14:11.718Z,0.00
2023-05-01T01:15:12.384Z,0.00
2023-05-01T01:16:11.661Z,0.00
2023-05-01T01:17:11.763Z,0.00
2023-05-01T01:18:11.709Z,0.00
2023-05-01T01:19:11.631Z,0.00
2023-05-01T01:20:11.611Z,0.00
2023-05-01T01:21:11.647Z,0.00
2023-05-01T01:22:11.614Z,0.00
2023-05-01T01:23:11.571Z,0.00
2023-05-01T01:24:11.577Z,0.00
2023-05-01T01:25:11.616Z,0.00
2023-05-01T01:26:11.590Z,0.00
2023-05-01T01:27:11.557Z,0.00
2023-05-01T01:28:11.534Z,0.00
2023-05-01T01:29:11.531Z,0.00
2023-05-01T01:30:12.031Z,0.00
2023-05-01T01:31:11.548Z,0.00
2023-05-01T01:32:11.529Z,0.00
2023-05-01T01:33:12.265Z,0.00
2023-05-01T01:34:11.482Z,0.00
2023-05-01T01:35:11.453Z,0.00
2023-05-01T01:36:11.500Z,0.00
2023-05-01T01:37:11.416Z,0.00
2023-05-01T01:38:11.421Z,0.00
2023-05-01T01:39:11.400Z,0.00
2023-05-01T01:40:11.410Z,0.00
2023-05-01T01:41:11.415Z,0.00
2023-05-01T01:42:11.392Z,0.00
2023-05-01T01:43:11.381Z,0.00
2023-05-01T01:44:11.374Z,0.00
2023-05-01T01:45:11.350Z,0.00
2023-05-01T01:46:11.491Z,0.00
2023-05-01T01:47:11.352Z,0.00
2023-05-01T01:48:11.384Z,0.00
2023-05-01T01:49:13.322Z,0.00
2023-05-01T01:50:11.341Z,0.00
2023-05-01T01:51:12.101Z,0.00
2023-05-01T01:52:11.294Z,0.00
2023-05-01T01:53:11.276Z,0.00
2023-05-01T01:54:11.267Z,0.00
2023-05-01T01:55:11.278Z,0.00
2023-05-01T01:56:11.273Z,0.00
2023-05-01T01:57:11.251Z,0.00
2023-05-01T01:58:11.223Z,0.00
2023-05-01T01:59:11.229Z,0.00
2023-05-01T02:00:11.398Z,0.00
2023-05-01T02:01:11.964Z,0.00
2023-05-01T02:02:11.383Z,0.00
2023-05-01T02:03:11.270Z,0.00
2023-05-01T02:04:12.349Z,0.00
2023-05-01T02:05:11.201Z,0.00
2023-05-01T02:06:11.248Z,0.00
2023-05-01T02:07:11.159Z,0.00
2023-05-01T02:08:11.137Z,0.00
2023-05-01T02:09:11.116Z,0.00
2023-05-01T02:10:11.119Z,0.00
2023-05-01T02:11:11.100Z,0.00
2023-05-01T02:12:11.144Z,0.00
2023-05-01T02:13:11.321Z,0.00
2023-05-01T02:14:11.064Z,0.00
2023-05-01T02:15:11.078Z,0.00
2023-05-01T02:16:11.101Z,0.00
2023-05-01T02:17:11.050Z,0.00
2023-05-01T02:18:11.045Z,0.00
2023-05-01T02:19:11.020Z,0.00
2023-05-01T02:20:13.215Z,0.00
2023-05-01T02:21:11.001Z,0.00
2023-05-01T02:22:11.022Z,0.00
2023-05-01T02:23:11.575Z,0.00
2023-05-01T02:24:12.585Z,0.00
2023-05-01T02:25:10.974Z,0.00
2023-05-01T02:26:29.952Z,0.00
2023-05-01T02:27:10.940Z,0.00
2023-05-01T02:28:12.481Z,0.00
2023-05-01T02:29:10.948Z,0.00
2023-05-01T02:30:10.952Z,0.00
2023-05-01T02:31:10.975Z,0.00
2023-05-01T02:32:10.892Z,0.00
2023-05-01T02:33:10.957Z,0.00
2023-05-01T02:34:10.863Z,0.00
2023-05-01T02:35:10.841Z,0.00
2023-05-01T02:36:10.853Z,0.00
2023-05-01T02:37:11.773Z,0.00
2023-05-01T02:38:10.857Z,0.00
2023-05-01T02:39:10.808Z,0.00
2023-05-01T02:40:10.804Z,0.00
2023-05-01T02:41:10.788Z,0.00
2023-05-01T02:42:10.917Z,0.00
2023-05-01T02:43:10.766Z,0.00
2023-05-01T02:44:10.765Z,0.00
2023-05-01T02:45:11.495Z,0.00
2023-05-01T02:46:11.508Z,0.00
2023-05-01T02:47:11.688Z,0.00
2023-05-01T02:48:10.759Z,0.00
2023-05-01T02:49:10.725Z,0.00
2023-05-01T02:50:11.396Z,0.00
2023-05-01T02:51:10.688Z,0.00
2023-05-01T02:52:11.062Z,0.00
2023-05-01T02:53:10.694Z,0.00
2023-05-01T02:54:10.674Z,0.00
2023-05-01T02:55:12.368Z,0.00
2023-05-01T02:56:10.651Z,0.00
2023-05-01T02:57:10.640Z,0.00
2023-05-01T02:58:10.583Z,1.00
2023-05-01T02:59:13.685Z,0.00
2023-05-01T03:00:10.598Z,0.00
2023-05-01T03:01:10.603Z,1.00
2023-05-01T03:02:10.533Z,1.00
2023-05-01T03:03:10.552Z,1.00
2023-05-01T03:04:10.602Z,0.00
2023-05-01T03:05:13.010Z,0.00
2023-05-01T03:06:10.535Z,2.00
2023-05-01T03:07:12.350Z,1.00
2023-05-01T03:08:10.491Z,1.00
2023-05-01T03:09:10.559Z,0.00
2023-05-01T03:10:11.282Z,2.00
2023-05-01T03:11:11.278Z,2.00
2023-05-01T03:12:10.433Z,6.00
2023-05-01T03:13:10.413Z,2.00
2023-05-01T03:14:10.432Z,1.00
2023-05-01T03:15:10.408Z,3.00
2023-05-01T03:16:10.440Z,3.00
2023-05-01T03:17:10.368Z,3.00
2023-05-01T03:18:10.403Z,3.00
2023-05-01T03:19:10.389Z,7.00
2023-05-01T03:20:10.406Z,4.00
2023-05-01T03:21:10.358Z,7.00
2023-05-01T03:22:10.335Z,7.00
2023-05-01T03:23:10.299Z,8.00
2023-05-01T03:24:10.342Z,9.00
2023-05-01T03:25:13.397Z,10.00
2023-05-01T03:26:10.285Z,14.00
2023-05-01T03:27:10.264Z,17.00
2023-05-01T03:28:10.273Z,23.00
2023-05-01T03:29:11.199Z,29.00
2023-05-01T03:30:10.332Z,29.00
2023-05-01T03:31:10.269Z,36.00
2023-05-01T03:32:10.973Z,43.00
2023-05-01T03:33:10.240Z,52.00
2023-05-01T03:34:10.197Z,57.00
2023-05-01T03:35:10.219Z,59.00
2023-05-01T03:36:10.224Z,65.00
2023-05-01T03:37:10.189Z,72.00
2023-05-01T03:38:10.372Z,75.00
2023-05-01T03:39:10.303Z,81.00
2023-05-01T03:40:10.149Z,91.00
2023-05-01T03:41:10.165Z,101.00
2023-05-01T03:42:10.120Z,111.00
2023-05-01T03:43:10.107Z,120.00
2023-05-01T03:44:10.127Z,126.00
2023-05-01T03:45:10.080Z,136.00
2023-05-01T03:46:10.145Z,148.00
2023-05-01T03:47:10.062Z,159.00
2023-05-01T03:48:10.148Z,168.00
2023-05-01T03:49:10.676Z,175.00
2023-05-01T03:50:10.421Z,188.00
2023-05-01T03:51:10.026Z,206.00
2023-05-01T03:52:10.046Z,222.00
2023-05-01T03:53:09.999Z,230.00
2023-05-01T03:54:10.009Z,247.00
2023-05-01T03:55:10.724Z,260.00
2023-05-01T03:56:09.984Z,276.00
2023-05-01T03:57:12.340Z,292.00
2023-05-01T03:58:09.964Z,307.00
2023-05-01T03:59:09.948Z,319.00
2023-05-01T04:00:09.991Z,340.00
2023-05-01T04:01:09.937Z,354.00
2023-05-01T04:02:11.528Z,363.00
2023-05-01T04:03:09.944Z,376.00
2023-05-01T04:04:09.980Z,398.00
2023-05-01T04:05:09.883Z,407.00
2023-05-01T04:06:09.923Z,418.00
2023-05-01T04:07:09.880Z,429.00
2023-05-01T04:08:09.895Z,447.00
2023-05-01T04:09:09.843Z,467.00
2023-05-01T04:10:09.898Z,482.00
2023-05-01T04:11:09.832Z,501.00
2023-05-01T04:12:09.843Z,514.00
2023-05-01T04:13:10.664Z,525.00
2023-05-01T04:14:09.814Z,536.00
2023-05-01T04:15:09.824Z,555.00
2023-05-01T04:16:09.820Z,575.00
2023-05-01T04:17:09.768Z,589.00
2023-05-01T04:18:09.870Z,601.00
2023-05-01T04:19:11.310Z,612.00
2023-05-01T04:20:09.745Z,635.00
2023-05-01T04:21:09.731Z,657.00
2023-05-01T04:22:09.763Z,670.00
2023-05-01T05:28:30.362Z,1655.00
2023-05-01T05:29:31.003Z,1714.00
2023-05-01T05:30:31.023Z,1655.00
2023-05-01T05:31:31.025Z,1679.00
2023-05-01T05:32:31.085Z,1728.00
2023-05-01T05:33:30.961Z,1604.00
2023-05-01T05:34:30.967Z,1603.00
2023-05-01T05:35:31.292Z,1686.00
2023-05-01T05:36:30.961Z,1783.00
2023-05-01T05:37:30.941Z,1743.00
2023-05-01T05:38:30.916Z,1810.00
2023-05-01T05:39:30.907Z,1930.00
2023-05-01T05:40:30.907Z,1972.00
2023-05-01T05:41:30.880Z,1971.00
2023-05-01T05:42:30.922Z,1997.00
2023-05-01T05:43:30.868Z,2012.00
2023-05-01T05:44:30.844Z,1976.00
2023-05-01T05:45:33.161Z,2012.00
2023-05-01T05:46:31.696Z,1990.00
2023-05-01T05:47:30.844Z,2041.00
2023-05-01T05:48:31.803Z,2076.00
2023-05-01T05:49:30.797Z,1854.00
2023-05-01T05:50:30.800Z,2072.00
2023-05-01T05:51:30.814Z,2102.00
2023-05-01T05:52:30.791Z,2128.00
2023-05-01T05:53:30.783Z,2163.00
2023-05-01T05:54:30.765Z,2301.00
2023-05-01T05:55:30.750Z,1999.00
2023-05-01T05:56:30.752Z,2055.00
2023-05-01T05:57:32.433Z,2185.00
2023-05-01T05:58:34.823Z,2146.00
2023-05-01T05:59:30.691Z,2505.00
2023-05-01T06:00:30.802Z,2419.00
2023-05-01T06:01:30.685Z,2131.00
2023-05-01T06:02:30.823Z,2553.00
2023-05-01T06:03:30.773Z,2685.00
2023-05-01T06:04:30.684Z,2415.00
2023-05-01T06:05:30.725Z,1905.00
2023-05-01T06:06:30.721Z,3424.00
2023-05-01T06:07:30.646Z,6262.00
2023-05-01T06:08:30.651Z,5507.00
2023-05-01T06:09:30.604Z,6482.00
2023-05-01T06:10:30.680Z,5817.00
2023-05-01T06:11:30.579Z,9898.00
2023-05-01T06:12:30.607Z,9017.00
2023-05-01T06:13:30.568Z,12663.00
2023-05-01T06:14:30.570Z,12732.00
2023-05-01T06:15:30.562Z,9009.00
2023-05-01T06:16:30.623Z,13698.00
2023-05-01T06:17:30.567Z,14995.00
2023-05-01T06:18:30.545Z,9904.00
2023-05-01T06:19:30.501Z,12400.00
2023-05-01T06:20:30.495Z,12647.00
2023-05-01T06:21:30.483Z,13163.00
2023-05-01T06:22:31.834Z,14890.00
2023-05-01T06:23:30.483Z,16474.00
2023-05-01T06:24:30.496Z,15921.00
2023-05-01T06:25:30.441Z,13036.00
2023-05-01T06:26:30.434Z,15951.00
2023-05-01T06:27:30.414Z,14832.00
2023-05-01T06:28:30.424Z,14980.00
2023-05-01T06:29:30.401Z,16588.00
2023-05-01T06:30:30.417Z,15880.00
2023-05-01T06:31:30.434Z,13504.00
2023-05-01T06:32:30.395Z,14863.00
2023-05-01T06:33:30.890Z,14626.00
2023-05-01T06:34:32.925Z,11230.00
2023-05-01T06:35:30.365Z,16105.00
2023-05-01T06:36:30.361Z,13871.00
2023-05-01T06:37:30.502Z,17335.00
2023-05-01T06:38:30.307Z,11310.00
2023-05-01T06:39:30.485Z,17859.00
2023-05-01T06:40:30.287Z,18342.00
2023-05-01T06:41:30.285Z,17055.00
2023-05-01T06:42:30.286Z,15611.00
2023-05-01T06:43:30.254Z,17242.00
2023-05-01T06:44:32.625Z,15028.00
2023-05-01T06:45:30.239Z,18409.00
2023-05-01T06:46:31.305Z,16303.00
2023-05-01T06:47:30.257Z,16933.00
2023-05-01T06:48:30.204Z,14380.00
2023-05-01T06:49:30.622Z,18615.00
2023-05-01T06:50:30.183Z,17873.00
2023-05-01T06:51:30.172Z,18641.00
2023-05-01T06:52:30.233Z,18027.00
2023-05-01T06:53:30.136Z,14589.00
2023-05-01T06:54:30.166Z,17488.00
2023-05-01T06:55:30.135Z,17852.00
2023-05-01T06:56:30.138Z,20514.00
2023-05-01T06:57:30.148Z,18847.00
2023-05-01T06:58:31.750Z,18704.00
2023-05-01T06:59:30.102Z,18804.00
2023-05-01T07:00:30.127Z,19347.00
2023-05-01T07:01:31.166Z,20196.00
2023-05-01T07:02:30.170Z,20264.00
2023-05-01T07:03:30.112Z,15036.00
2023-05-01T07:04:30.049Z,12802.00
2023-05-01T07:05:30.617Z,10226.00
2023-05-01T07:06:30.073Z,19663.00
2023-05-01T07:07:30.025Z,22445.00
2023-05-01T07:08:29.992Z,17773.00
2023-05-01T07:09:29.972Z,20572.00
2023-05-01T07:10:30.844Z,26248.00
2023-05-01T07:11:29.959Z,25364.00
2023-05-01T07:12:29.970Z,10494.00
2023-05-01T07:13:29.924Z,20900.00
2023-05-01T07:14:29.950Z,23149.00
2023-05-01T07:15:29.926Z,17169.00
2023-05-01T07:16:29.960Z,16605.00
2023-05-01T07:17:29.945Z,18709.00
2023-05-01T07:18:29.907Z,21165.00
2023-05-01T07:19:31.426Z,20097.00
2023-05-01T07:20:29.896Z,20371.00
2023-05-01T07:21:29.859Z,19843.00
2023-05-01T07:22:29.846Z,19282.00
2023-05-01T07:23:29.828Z,19954.00
2023-05-01T07:24:31.692Z,22517.00
2023-05-01T07:25:31.781Z,19950.00
2023-05-01T07:26:33.003Z,17469.00
2023-05-01T07:27:29.797Z,22727.00
2023-05-01T07:28:31.357Z,16654.00
2023-05-01T07:29:30.662Z,16054.00
2023-05-01T07:30:31.643Z,19777.00
2023-05-01T07:31:29.785Z,14794.00
2023-05-01T07:32:31.311Z,17703.00
2023-05-01T07:33:29.752Z,20324.00
2023-05-01T07:34:31.382Z,21022.00
2023-05-01T07:35:31.640Z,22731.00
2023-05-01T07:36:30.728Z,20563.00
2023-05-01T07:37:29.692Z,16050.00
2023-05-01T07:38:29.686Z,26438.00
2023-05-01T07:39:30.831Z,9151.00
2023-05-01T07:40:29.679Z,10539.00
2023-05-01T07:41:29.637Z,16706.00
2023-05-01T07:42:29.634Z,18756.00
2023-05-01T07:43:29.616Z,17691.00
2023-05-01T07:44:29.645Z,14959.00
2023-05-01T07:45:29.599Z,11466.00
2023-05-01T07:46:29.981Z,10148.00
2023-05-01T07:47:29.613Z,6632.00
2023-05-01T07:48:29.620Z,6536.00
2023-05-01T07:49:29.576Z,6473.00
2023-05-01T07:50:29.574Z,6429.00
2023-05-01T07:51:30.494Z,6062.00
2023-05-01T07:52:29.546Z,6204.00
2023-05-01T07:53:29.516Z,6706.00
2023-05-01T07:54:29.513Z,6725.00
2023-05-01T07:55:29.548Z,6842.00
2023-05-01T07:56:29.500Z,6802.00
2023-05-01T07:57:29.490Z,5842.00
2023-05-01T07:58:29.477Z,6345.00
2023-05-01T07:59:29.883Z,5869.00
2023-05-01T08:00:29.450Z,6911.00
2023-05-01T08:01:29.464Z,3799.00
2023-05-01T08:02:29.545Z,5197.00
2023-05-01T08:03:29.794Z,12274.00
2023-05-01T08:04:29.533Z,21300.00
2023-05-01T08:05:29.388Z,27665.00
2023-05-01T08:06:29.484Z,21979.00
2023-05-01T08:07:29.360Z,26898.00
2023-05-01T08:08:29.399Z,23436.00
2023-05-01T08:09:29.348Z,18132.00
2023-05-01T08:10:29.337Z,26249.00
2023-05-01T08:11:29.349Z,18999.00
2023-05-01T08:12:29.341Z,21281.00
2023-05-01T08:13:29.361Z,23860.00
2023-05-01T08:14:29.294Z,21078.00
2023-05-01T08:15:29.296Z,18009.00
2023-05-01T08:16:29.312Z,20372.00
2023-05-01T08:17:30.786Z,21018.00
2023-05-01T08:18:29.256Z,25578.00
2023-05-01T08:19:29.287Z,20115.00
2023-05-01T08:20:29.231Z,20988.00
2023-05-01T08:21:29.270Z,30598.00
2023-05-01T08:22:29.232Z,21816.00
2023-05-01T08:23:29.219Z,20074.00
2023-05-01T08:24:29.197Z,18521.00
2023-05-01T08:25:29.217Z,15448.00
2023-05-01T08:26:29.235Z,10779.00
2023-05-01T08:27:29.228Z,9862.00
2023-05-01T08:28:29.167Z,5528.00
2023-05-01T08:29:29.182Z,7132.00
2023-05-01T08:30:29.163Z,6348.00
2023-05-01T08:31:29.169Z,6693.00
2023-05-01T08:32:29.196Z,7172.00
2023-05-01T08:33:29.143Z,7078.00
2023-05-01T08:34:29.107Z,6495.00
2023-05-01T08:35:30.624Z,6499.00
2023-05-01T08:36:29.090Z,6222.00
2023-05-01T08:37:29.114Z,6694.00
2023-05-01T08:38:29.067Z,6414.00
2023-05-01T08:39:29.076Z,6549.00
2023-05-01T08:40:29.033Z,6238.00
2023-05-01T08:41:29.044Z,6049.00
2023-05-01T08:42:30.468Z,5662.00
2023-05-01T08:43:29.049Z,5472.00
2023-05-01T08:44:29.012Z,5354.00
2023-05-01T08:45:31.791Z,6546.00
2023-05-01T08:46:29.072Z,6175.00
2023-05-01T08:47:30.783Z,5603.00
2023-05-01T08:48:28.949Z,5998.00
2023-05-01T08:49:28.955Z,5977.00
2023-05-01T08:50:28.940Z,6178.00
2023-05-01T08:51:28.957Z,6121.00
2023-05-01T08:52:28.914Z,6223.00
2023-05-01T08:53:28.946Z,5113.00
2023-05-01T08:54:28.900Z,5385.00
2023-05-01T08:55:28.904Z,5416.00
2023-05-01T08:56:28.891Z,5437.00
2023-05-01T08:57:28.865Z,5717.00
2023-05-01T08:58:28.847Z,5423.00
2023-05-01T08:59:28.843Z,5834.00
2023-05-01T09:00:28.831Z,4990.00
2023-05-01T09:01:28.942Z,5326.00
2023-05-01T09:02:28.854Z,5649.00
2023-05-01T09:03:28.962Z,5619.00
2023-05-01T09:04:28.784Z,4666.00
2023-05-01T09:05:28.796Z,5786.00
2023-05-01T09:06:28.890Z,5439.00
2023-05-01T09:07:28.762Z,5350.00
2023-05-01T09:08:28.757Z,5403.00
2023-05-01T09:09:28.748Z,5447.00
2023-05-01T09:10:28.745Z,5096.00
2023-05-01T09:11:28.792Z,5192.00
2023-05-01T09:12:28.700Z,4958.00
2023-05-01T09:13:28.703Z,5045.00
2023-05-01T09:14:28.680Z,4983.00
2023-05-01T09:15:28.719Z,5388.00
2023-05-01T09:16:28.728Z,5532.00
2023-05-01T09:17:28.713Z,5682.00
2023-05-01T09:18:28.699Z,5482.00
2023-05-01T09:19:28.645Z,5710.00
2023-05-01T09:20:28.652Z,5929.00
2023-05-01T09:21:28.622Z,5578.00
2023-05-01T09:22:28.608Z,5401.00
2023-05-01T09:23:28.636Z,5329.00
2023-05-01T09:24:28.583Z,5468.00
2023-05-01T09:25:28.596Z,5385.00
2023-05-01T09:26:28.566Z,5467.00
2023-05-01T09:27:28.574Z,5339.00
2023-05-01T09:28:28.563Z,5331.00
2023-05-01T09:29:28.539Z,5214.00
2023-05-01T09:30:28.544Z,5154.00
2023-05-01T09:31:28.770Z,5055.00
2023-05-01T09:32:28.878Z,5260.00
2023-05-01T09:33:28.536Z,5407.00
2023-05-01T09:34:28.488Z,5385.00
2023-05-01T09:35:28.491Z,5235.00
2023-05-01T09:36:28.464Z,5211.00
2023-05-01T09:37:28.552Z,5180.00
2023-05-01T09:38:28.460Z,5166.00
2023-05-01T09:39:28.444Z,5173.00
2023-05-01T09:40:28.425Z,5222.00
2023-05-01T09:41:28.427Z,5186.00
2023-05-01T09:42:28.414Z,4610.00
2023-05-01T09:43:28.517Z,4853.00
2023-05-01T09:44:28.400Z,4925.00
2023-05-01T09:45:30.450Z,4658.00
2023-05-01T09:46:28.381Z,5112.00
2023-05-01T09:47:28.393Z,5555.00
2023-05-01T09:48:28.476Z,4552.00
2023-05-01T09:49:28.334Z,4985.00
2023-05-01T09:50:28.352Z,4712.00
2023-05-01T09:51:28.348Z,4797.00
2023-05-01T09:52:28.309Z,4977.00
2023-05-01T09:53:28.305Z,4285.00
2023-05-01T09:54:28.286Z,4744.00
2023-05-01T09:55:28.310Z,4806.00
2023-05-01T09:56:28.271Z,5001.00
2023-05-01T09:57:28.437Z,5098.00
2023-05-01T09:58:28.273Z,4827.00
2023-05-01T09:59:28.273Z,4782.00
2023-05-01T10:00:28.257Z,4710.00
2023-05-01T10:01:28.347Z,4782.00
2023-05-01T10:02:28.309Z,4750.00
2023-05-01T10:03:28.282Z,4772.00
2023-05-01T10:04:28.189Z,4807.00
2023-05-01T10:05:28.225Z,4743.00
2023-05-01T10:06:28.224Z,4641.00
2023-05-01T10:07:28.185Z,4560.00
2023-05-01T10:08:28.146Z,4336.00
2023-05-01T10:09:28.155Z,4386.00
2023-05-01T10:10:28.150Z,4223.00
2023-05-01T10:11:28.169Z,4212.00
2023-05-01T10:12:28.110Z,4225.00
2023-05-01T10:13:28.112Z,4094.00
2023-05-01T10:14:28.150Z,3954.00
2023-05-01T10:15:28.121Z,4001.00
2023-05-01T10:16:28.097Z,4009.00
2023-05-01T10:17:28.099Z,4028.00
2023-05-01T10:18:29.053Z,4022.00
2023-05-01T10:19:28.046Z,3887.00
2023-05-01T10:20:28.049Z,4190.00
2023-05-01T10:21:28.031Z,3924.00
2023-05-01T10:22:28.017Z,4410.00
2023-05-01T10:23:28.019Z,4020.00
2023-05-01T10:24:28.016Z,3768.00
2023-05-01T10:25:27.989Z,4015.00
2023-05-01T10:26:28.000Z,4424.00
2023-05-01T10:27:27.971Z,4308.00
2023-05-01T10:28:27.946Z,4381.00
2023-05-01T10:29:27.985Z,4645.00
2023-05-01T10:30:27.925Z,4839.00
2023-05-01T10:31:27.973Z,4867.00
2023-05-01T10:32:27.963Z,4932.00
2023-05-01T10:33:27.917Z,4867.00
2023-05-01T10:34:28.505Z,4590.00
2023-05-01T10:35:27.892Z,4524.00
2023-05-01T10:36:27.880Z,4609.00
2023-05-01T10:37:27.858Z,4624.00
2023-05-01T10:38:27.842Z,4793.00
2023-05-01T10:39:27.881Z,5079.00
2023-05-01T10:40:27.855Z,4958.00
2023-05-01T10:41:27.824Z,5222.00
2023-05-01T10:42:27.812Z,5097.00
2023-05-01T10:43:27.959Z,5175.00
2023-05-01T10:44:27.792Z,5074.00
2023-05-01T10:45:27.799Z,5312.00
2023-05-01T10:46:27.802Z,5417.00
2023-05-01T10:47:27.862Z,6336.00
2023-05-01T10:48:27.744Z,9434.00
2023-05-01T10:49:27.746Z,4963.00
2023-05-01T10:50:27.751Z,6636.00
2023-05-01T10:51:28.394Z,16755.00
2023-05-01T10:52:27.700Z,78915.00
2023-05-01T10:53:27.699Z,78946.00
2023-05-01T10:54:27.704Z,78668.00
2023-05-01T10:55:27.694Z,75949.00
2023-05-01T10:56:27.676Z,20995.00
2023-05-01T10:57:28.552Z,30728.00
2023-05-01T10:58:27.642Z,12364.00
2023-05-01T10:59:27.895Z,6694.00
2023-05-01T11:00:27.604Z,5713.00
2023-05-01T11:01:27.713Z,5116.00
2023-05-01T11:02:27.673Z,4837.00
2023-05-01T11:03:27.590Z,5022.00
2023-05-01T11:04:27.615Z,4259.00
2023-05-01T11:05:38.053Z,4505.00
2023-05-01T11:06:29.405Z,4464.00
2023-05-01T11:07:27.569Z,4602.00
2023-05-01T11:08:27.600Z,4730.00
2023-05-01T11:09:27.570Z,4727.00
2023-05-01T11:10:27.547Z,4578.00
2023-05-01T11:11:27.515Z,5036.00
2023-05-01T11:12:27.501Z,5146.00
2023-05-01T11:13:27.493Z,4683.00
2023-05-01T11:14:27.502Z,4788.00
2023-05-01T11:15:27.505Z,4387.00
2023-05-01T11:16:27.524Z,5428.00
2023-05-01T11:17:27.497Z,5256.00
2023-05-01T11:18:27.454Z,5127.00
2023-05-01T11:20:27.413Z,5227.00
2023-05-01T11:21:27.419Z,5429.00
2023-05-01T11:22:27.402Z,5613.00
2023-05-01T11:23:28.128Z,5817.00
2023-05-01T11:24:27.412Z,5863.00
2023-05-01T11:25:28.027Z,5487.00
2023-05-01T11:26:27.361Z,6377.00
2023-05-01T11:27:27.380Z,6300.00
2023-05-01T11:28:27.338Z,6525.00
2023-05-01T11:29:27.320Z,6616.00
2023-05-01T11:30:27.321Z,6848.00
2023-05-01T11:31:27.318Z,6730.00
2023-05-01T11:32:27.387Z,6212.00
2023-05-01T11:33:27.295Z,6460.00
2023-05-01T11:34:27.340Z,5888.00
2023-05-01T11:35:27.272Z,5636.00
2023-05-01T11:36:27.274Z,5411.00
2023-05-01T11:37:27.252Z,5641.00
2023-05-01T11:38:27.241Z,5359.00
2023-05-01T11:39:27.267Z,5018.00
2023-05-01T11:40:27.201Z,4051.00
2023-05-01T11:41:27.246Z,5912.00
2023-05-01T11:42:27.217Z,6651.00
2023-05-01T11:43:28.011Z,6856.00
2023-05-01T11:44:27.187Z,7260.00
2023-05-01T11:45:27.175Z,7092.00
2023-05-01T11:46:27.242Z,6846.00
2023-05-01T11:47:27.242Z,6744.00
2023-05-01T11:48:27.179Z,6082.00
2023-05-01T11:49:27.155Z,6498.00
2023-05-01T11:50:27.109Z,6046.00
2023-05-01T11:51:27.119Z,6594.00
2023-05-01T11:52:27.083Z,6109.00
2023-05-01T11:53:27.095Z,5948.00
2023-05-01T11:54:27.096Z,5313.00
2023-05-01T11:55:27.048Z,5159.00
2023-05-01T11:56:27.682Z,6070.00
2023-05-01T11:57:27.044Z,2665.00
2023-05-01T11:58:27.028Z,4054.00
2023-05-01T11:59:27.044Z,4330.00
2023-05-01T12:00:27.004Z,4257.00
2023-05-01T12:01:27.029Z,4179.00
2023-05-01T12:02:27.050Z,3878.00
2023-05-01T12:03:27.454Z,4328.00
2023-05-01T12:04:29.628Z,4252.00
2023-05-01T12:05:26.972Z,4058.00
2023-05-01T12:06:26.959Z,4648.00
2023-05-01T12:07:26.962Z,4788.00
2023-05-01T12:08:26.945Z,5048.00
2023-05-01T12:09:26.985Z,3807.00
2023-05-01T12:10:26.908Z,3786.00
2023-05-01T12:11:26.910Z,4173.00
2023-05-01T12:12:26.918Z,3622.00
2023-05-01T12:13:27.039Z,3740.00
2023-05-01T12:14:26.865Z,5104.00
2023-05-01T12:15:26.877Z,5480.00
2023-05-01T12:16:26.895Z,5935.00
2023-05-01T12:17:26.943Z,6231.00
2023-05-01T12:18:26.882Z,6015.00
2023-05-01T12:19:26.829Z,6163.00
2023-05-01T12:20:26.805Z,5905.00
2023-05-01T12:21:26.811Z,5406.00
2023-05-01T12:22:26.843Z,5192.00
2023-05-01T12:23:26.780Z,5360.00
2023-05-01T12:24:26.764Z,4871.00
2023-05-01T12:25:26.765Z,5070.00
2023-05-01T12:26:26.758Z,5708.00
2023-05-01T12:27:26.802Z,5812.00
2023-05-01T12:28:27.565Z,6228.00
2023-05-01T12:29:26.719Z,6128.00
2023-05-01T12:30:26.717Z,6480.00
2023-05-01T12:31:26.741Z,6656.00
2023-05-01T12:32:28.567Z,6379.00
2023-05-01T12:33:26.681Z,6496.00
2023-05-01T12:34:26.664Z,6625.00
2023-05-01T12:35:26.686Z,6713.00
2023-05-01T12:36:28.308Z,6724.00
2023-05-01T12:37:26.625Z,6514.00
2023-05-01T12:38:26.658Z,6445.00
2023-05-01T12:39:28.291Z,6521.00
2023-05-01T12:40:28.266Z,6277.00
2023-05-01T12:41:26.596Z,6335.00
2023-05-01T12:42:26.605Z,5918.00
2023-05-01T12:43:26.606Z,5912.00
2023-05-01T12:44:27.369Z,6711.00
2023-05-01T12:45:27.098Z,6625.00
2023-05-01T12:46:31.420Z,7089.00
2023-05-01T12:47:28.119Z,6899.00
2023-05-01T12:48:28.136Z,6933.00
2023-05-01T12:49:26.507Z,6978.00
2023-05-01T12:50:28.056Z,6724.00
2023-05-01T12:51:28.096Z,6204.00
2023-05-01T12:52:28.109Z,6504.00
2023-05-01T12:53:26.497Z,6695.00
2023-05-01T12:54:26.466Z,6518.00
2023-05-01T12:55:26.461Z,6837.00
2023-05-01T12:56:26.444Z,6576.00
2023-05-01T12:57:26.439Z,6655.00
2023-05-01T12:58:26.420Z,6349.00
2023-05-01T12:59:26.414Z,6166.00
2023-05-01T13:00:26.438Z,5948.00
2023-05-01T13:01:26.391Z,5993.00
2023-05-01T13:02:26.580Z,6158.00
2023-05-01T13:03:26.470Z,6249.00
2023-05-01T13:04:26.430Z,6041.00
2023-05-01T13:05:26.341Z,5684.00
2023-05-01T13:06:29.413Z,4946.00
2023-05-01T13:07:26.345Z,5270.00
2023-05-01T13:08:26.327Z,5695.00
2023-05-01T13:09:26.296Z,6225.00
2023-05-01T13:10:26.298Z,6407.00
2023-05-01T13:11:27.054Z,5820.00
2023-05-01T13:12:26.316Z,5902.00
2023-05-01T13:13:26.284Z,6635.00
2023-05-01T13:14:26.257Z,6733.00
2023-05-01T13:15:26.246Z,6945.00
2023-05-01T13:16:26.282Z,6687.00
2023-05-01T13:17:26.253Z,6668.00
2023-05-01T13:18:26.247Z,7061.00
2023-05-01T13:19:26.199Z,7400.00
2023-05-01T13:20:26.203Z,7277.00
2023-05-01T13:21:26.202Z,7346.00
2023-05-01T13:22:26.195Z,7264.00
2023-05-01T13:23:26.175Z,7009.00
2023-05-01T13:24:26.170Z,6763.00
2023-05-01T13:25:26.184Z,6997.00
2023-05-01T13:26:26.166Z,7154.00
2023-05-01T13:27:26.136Z,6997.00
2023-05-01T13:28:26.114Z,6576.00